Terminal Aerodrome Forecast
Issued by NWS Buffalo, NY

Home | Current Version | Previous Version | Text Only | Print | Product List | Glossary On
Versions: 1 2 3 4 5 6 7 8 9 10 11 12 13 14 15 16 17 18 19 20 21 22 23 24 25 26 27 28 29
000
FTUS41 KBUF 111700
TAFART
TAF
KART 111735Z 1118/1218 VRB04KT P6SM SCT050
     FM120000 VRB03KT P6SM FEW250
     FM121400 20005KT P6SM SCT060
     FM121700 23009KT P6SM SCT100=

USA.gov is the U.S. government's official web portal to all federal, state and local government web resources and services.